Equality, Alabama
Current Conditions -  °F | °C
As of 12:15 PM on Thursday 29 Jan 2015 (Local Time) from KALX Reporting Station
Clear Clear  
Wind Chill: 59°   Ceiling: Unl
Heat Index: 59°   Visibility: 10mi
Dew Point: 34°   Wind: 7mph
Humidity: 39%   Direction: 190°S
Pressure: 30.22"   Gusts: NA
Location:  32.76°N, 86.1°W
Report Text: KALX 291815Z AUTO 19006KT 10SM CLR 15/01 A3022 RMK AO2 T01510011
Loading
Personal Weather Stations






























Interactive Weather Map New forecast layout! Learn more

10-Day Weather Forecast

Advertisements
Track Severe Weather on mobile